sensor_id;sensor_type;location;lat;lon;timestamp;P1;durP1;ratioP1;P2;durP2;ratioP2
37453;SDS011;23315;52.078;4.756;2023-11-21T00:00:24;13.50;;;4.75;;
37453;SDS011;23315;52.078;4.756;2023-11-21T00:02:49;11.75;;;4.65;;
37453;SDS011;23315;52.078;4.756;2023-11-21T00:05:15;14.73;;;5.18;;
37453;SDS011;23315;52.078;4.756;2023-11-21T00:07:41;9.82;;;4.20;;
37453;SDS011;23315;52.078;4.756;2023-11-21T00:10:07;8.52;;;3.55;;
37453;SDS011;23315;52.078;4.756;2023-11-21T00:12:33;10.50;;;3.65;;
37453;SDS011;23315;52.078;4.756;2023-11-21T00:15:02;16.15;;;5.28;;
37453;SDS011;23315;52.078;4.756;2023-11-21T00:17:29;12.40;;;4.95;;
37453;SDS011;23315;52.078;4.756;2023-11-21T00:19:54;12.65;;;5.78;;
37453;SDS011;23315;52.078;4.756;2023-11-21T00:22:19;8.63;;;3.85;;
37453;SDS011;23315;52.078;4.756;2023-11-21T00:24:45;9.57;;;3.35;;
37453;SDS011;23315;52.078;4.756;2023-11-21T00:27:11;4.78;;;2.58;;
37453;SDS011;23315;52.078;4.756;2023-11-21T00:29:36;13.23;;;4.07;;
37453;SDS011;23315;52.078;4.756;2023-11-21T00:32:02;12.95;;;3.90;;
37453;SDS011;23315;52.078;4.756;2023-11-21T00:34:27;10.38;;;3.58;;
37453;SDS011;23315;52.078;4.756;2023-11-21T00:36:53;7.55;;;2.35;;
37453;SDS011;23315;52.078;4.756;2023-11-21T00:39:18;5.28;;;2.80;;
37453;SDS011;23315;52.078;4.756;2023-11-21T00:41:43;7.82;;;2.83;;
37453;SDS011;23315;52.078;4.756;2023-11-21T00:44:10;6.28;;;3.20;;
37453;SDS011;23315;52.078;4.756;2023-11-21T00:46:35;8.90;;;3.13;;
37453;SDS011;23315;52.078;4.756;2023-11-21T00:49:01;11.73;;;3.85;;
37453;SDS011;23315;52.078;4.756;2023-11-21T00:51:29;8.90;;;4.63;;
37453;SDS011;23315;52.078;4.756;2023-11-21T00:53:54;8.45;;;3.20;;
37453;SDS011;23315;52.078;4.756;2023-11-21T00:56:20;6.25;;;3.17;;
37453;SDS011;23315;52.078;4.756;2023-11-21T00:58:45;11.70;;;3.97;;
37453;SDS011;23315;52.078;4.756;2023-11-21T01:01:14;9.13;;;3.08;;
37453;SDS011;23315;52.078;4.756;2023-11-21T01:03:40;10.18;;;3.17;;
37453;SDS011;23315;52.078;4.756;2023-11-21T01:06:05;3.80;;;2.42;;
37453;SDS011;23315;52.078;4.756;2023-11-21T01:08:33;6.15;;;2.47;;
37453;SDS011;23315;52.078;4.756;2023-11-21T01:10:58;6.25;;;3.83;;
37453;SDS011;23315;52.078;4.756;2023-11-21T01:13:23;9.10;;;3.78;;
37453;SDS011;23315;52.078;4.756;2023-11-21T01:15:52;9.25;;;3.55;;
37453;SDS011;23315;52.078;4.756;2023-11-21T01:18:18;7.78;;;3.55;;
37453;SDS011;23315;52.078;4.756;2023-11-21T01:20:43;9.77;;;4.63;;
37453;SDS011;23315;52.078;4.756;2023-11-21T01:23:09;9.88;;;4.38;;
37453;SDS011;23315;52.078;4.756;2023-11-21T01:25:34;9.57;;;4.45;;
37453;SDS011;23315;52.078;4.756;2023-11-21T01:27:59;10.80;;;4.72;;
37453;SDS011;23315;52.078;4.756;2023-11-21T01:30:25;12.63;;;4.00;;
37453;SDS011;23315;52.078;4.756;2023-11-21T01:32:50;7.85;;;4.45;;
37453;SDS011;23315;52.078;4.756;2023-11-21T01:35:15;9.68;;;4.18;;
37453;SDS011;23315;52.078;4.756;2023-11-21T01:37:41;6.18;;;3.65;;
37453;SDS011;23315;52.078;4.756;2023-11-21T01:40:06;12.27;;;4.65;;
37453;SDS011;23315;52.078;4.756;2023-11-21T01:42:36;9.82;;;5.22;;
37453;SDS011;23315;52.078;4.756;2023-11-21T01:45:02;9.52;;;4.75;;
37453;SDS011;23315;52.078;4.756;2023-11-21T01:47:29;7.85;;;4.35;;
37453;SDS011;23315;52.078;4.756;2023-11-21T01:49:56;6.72;;;3.33;;
37453;SDS011;23315;52.078;4.756;2023-11-21T01:52:21;7.03;;;3.50;;
37453;SDS011;23315;52.078;4.756;2023-11-21T01:54:46;7.53;;;3.33;;
37453;SDS011;23315;52.078;4.756;2023-11-21T01:57:12;6.40;;;3.25;;
37453;SDS011;23315;52.078;4.756;2023-11-21T01:59:38;6.15;;;3.00;;
37453;SDS011;23315;52.078;4.756;2023-11-21T02:02:07;6.00;;;2.80;;
37453;SDS011;23315;52.078;4.756;2023-11-21T02:04:33;4.93;;;2.60;;
37453;SDS011;23315;52.078;4.756;2023-11-21T02:06:59;7.43;;;3.28;;
37453;SDS011;23315;52.078;4.756;2023-11-21T02:09:25;7.90;;;4.28;;
37453;SDS011;23315;52.078;4.756;2023-11-21T02:11:58;5.63;;;3.10;;
37453;SDS011;23315;52.078;4.756;2023-11-21T02:14:24;9.20;;;3.13;;
37453;SDS011;23315;52.078;4.756;2023-11-21T02:16:51;9.35;;;3.40;;
37453;SDS011;23315;52.078;4.756;2023-11-21T02:19:18;7.30;;;3.20;;
37453;SDS011;23315;52.078;4.756;2023-11-21T02:21:54;8.00;;;3.72;;
37453;SDS011;23315;52.078;4.756;2023-11-21T02:24:29;8.82;;;3.53;;
37453;SDS011;23315;52.078;4.756;2023-11-21T02:26:55;6.00;;;3.13;;
37453;SDS011;23315;52.078;4.756;2023-11-21T02:29:21;7.38;;;3.00;;
37453;SDS011;23315;52.078;4.756;2023-11-21T02:31:53;5.60;;;2.95;;
37453;SDS011;23315;52.078;4.756;2023-11-21T02:34:20;5.28;;;2.53;;
37453;SDS011;23315;52.078;4.756;2023-11-21T02:36:45;4.75;;;2.25;;
37453;SDS011;23315;52.078;4.756;2023-11-21T02:39:12;9.07;;;2.13;;
37453;SDS011;23315;52.078;4.756;2023-11-21T02:41:38;6.88;;;2.42;;
37453;SDS011;23315;52.078;4.756;2023-11-21T02:44:04;4.65;;;2.30;;
37453;SDS011;23315;52.078;4.756;2023-11-21T02:46:33;4.32;;;2.05;;
37453;SDS011;23315;52.078;4.756;2023-11-21T02:48:59;4.68;;;1.83;;
37453;SDS011;23315;52.078;4.756;2023-11-21T02:51:28;2.67;;;1.50;;
37453;SDS011;23315;52.078;4.756;2023-11-21T02:53:54;5.20;;;1.70;;
37453;SDS011;23315;52.078;4.756;2023-11-21T02:56:23;3.40;;;1.98;;
37453;SDS011;23315;52.078;4.756;2023-11-21T02:58:50;3.10;;;1.60;;
37453;SDS011;23315;52.078;4.756;2023-11-21T03:01:15;2.50;;;1.30;;
37453;SDS011;23315;52.078;4.756;2023-11-21T03:03:41;2.15;;;1.38;;
37453;SDS011;23315;52.078;4.756;2023-11-21T03:06:07;4.38;;;1.52;;
37453;SDS011;23315;52.078;4.756;2023-11-21T03:08:33;2.35;;;1.45;;
37453;SDS011;23315;52.078;4.756;2023-11-21T03:10:58;2.80;;;1.55;;
37453;SDS011;23315;52.078;4.756;2023-11-21T03:13:24;3.00;;;1.85;;
37453;SDS011;23315;52.078;4.756;2023-11-21T03:15:49;2.25;;;1.25;;
37453;SDS011;23315;52.078;4.756;2023-11-21T03:18:15;3.30;;;1.67;;
37453;SDS011;23315;52.078;4.756;2023-11-21T03:20:40;2.45;;;1.38;;
37453;SDS011;23315;52.078;4.756;2023-11-21T03:23:06;1.88;;;1.25;;
37453;SDS011;23315;52.078;4.756;2023-11-21T03:25:31;1.88;;;1.45;;
37453;SDS011;23315;52.078;4.756;2023-11-21T03:27:57;3.88;;;1.50;;
37453;SDS011;23315;52.078;4.756;2023-11-21T03:30:22;2.95;;;1.35;;
37453;SDS011;23315;52.078;4.756;2023-11-21T03:32:48;5.47;;;1.60;;
37453;SDS011;23315;52.078;4.756;2023-11-21T03:35:13;3.53;;;1.35;;
37453;SDS011;23315;52.078;4.756;2023-11-21T03:37:39;1.45;;;1.10;;
37453;SDS011;23315;52.078;4.756;2023-11-21T03:40:06;2.92;;;1.50;;
37453;SDS011;23315;52.078;4.756;2023-11-21T03:42:33;6.30;;;1.48;;
37453;SDS011;23315;52.078;4.756;2023-11-21T03:44:59;4.53;;;1.33;;
37453;SDS011;23315;52.078;4.756;2023-11-21T03:47:25;3.20;;;1.40;;
37453;SDS011;23315;52.078;4.756;2023-11-21T03:49:51;3.47;;;1.45;;
37453;SDS011;23315;52.078;4.756;2023-11-21T03:52:16;4.20;;;1.50;;
37453;SDS011;23315;52.078;4.756;2023-11-21T03:54:42;4.30;;;1.75;;
37453;SDS011;23315;52.078;4.756;2023-11-21T03:57:08;5.63;;;2.22;;
37453;SDS011;23315;52.078;4.756;2023-11-21T03:59:34;4.18;;;2.00;;
37453;SDS011;23315;52.078;4.756;2023-11-21T04:01:59;3.00;;;2.08;;
37453;SDS011;23315;52.078;4.756;2023-11-21T04:04:25;3.13;;;2.00;;
37453;SDS011;23315;52.078;4.756;2023-11-21T04:06:50;4.78;;;1.80;;
37453;SDS011;23315;52.078;4.756;2023-11-21T04:09:17;4.95;;;1.85;;
37453;SDS011;23315;52.078;4.756;2023-11-21T04:11:42;4.28;;;1.95;;
37453;SDS011;23315;52.078;4.756;2023-11-21T04:14:08;4.63;;;2.15;;
37453;SDS011;23315;52.078;4.756;2023-11-21T04:16:34;4.45;;;1.92;;
37453;SDS011;23315;52.078;4.756;2023-11-21T04:18:59;2.33;;;1.60;;
37453;SDS011;23315;52.078;4.756;2023-11-21T04:21:25;4.07;;;2.33;;
37453;SDS011;23315;52.078;4.756;2023-11-21T04:23:50;5.85;;;2.92;;
37453;SDS011;23315;52.078;4.756;2023-11-21T04:26:16;5.28;;;2.22;;
37453;SDS011;23315;52.078;4.756;2023-11-21T04:28:41;10.38;;;3.17;;
37453;SDS011;23315;52.078;4.756;2023-11-21T04:31:06;7.75;;;2.97;;
37453;SDS011;23315;52.078;4.756;2023-11-21T04:33:33;6.93;;;3.22;;
37453;SDS011;23315;52.078;4.756;2023-11-21T04:35:58;7.45;;;2.80;;
37453;SDS011;23315;52.078;4.756;2023-11-21T04:38:24;9.68;;;3.35;;
37453;SDS011;23315;52.078;4.756;2023-11-21T04:40:49;5.20;;;3.10;;
37453;SDS011;23315;52.078;4.756;2023-11-21T04:43:14;9.40;;;4.32;;
37453;SDS011;23315;52.078;4.756;2023-11-21T04:45:40;9.43;;;4.18;;
37453;SDS011;23315;52.078;4.756;2023-11-21T04:48:06;12.65;;;3.88;;
37453;SDS011;23315;52.078;4.756;2023-11-21T04:50:33;6.90;;;3.95;;
37453;SDS011;23315;52.078;4.756;2023-11-21T04:52:58;14.73;;;4.75;;
37453;SDS011;23315;52.078;4.756;2023-11-21T04:55:23;12.60;;;4.93;;
37453;SDS011;23315;52.078;4.756;2023-11-21T04:57:49;12.65;;;5.72;;
37453;SDS011;23315;52.078;4.756;2023-11-21T05:00:14;13.50;;;6.20;;
37453;SDS011;23315;52.078;4.756;2023-11-21T05:02:40;17.35;;;6.97;;
37453;SDS011;23315;52.078;4.756;2023-11-21T05:05:06;14.35;;;6.05;;
37453;SDS011;23315;52.078;4.756;2023-11-21T05:07:32;15.13;;;6.32;;
37453;SDS011;23315;52.078;4.756;2023-11-21T05:10:00;14.43;;;7.25;;
37453;SDS011;23315;52.078;4.756;2023-11-21T05:12:28;15.10;;;6.18;;
37453;SDS011;23315;52.078;4.756;2023-11-21T05:14:58;24.98;;;6.47;;
37453;SDS011;23315;52.078;4.756;2023-11-21T05:17:23;17.02;;;6.55;;
37453;SDS011;23315;52.078;4.756;2023-11-21T05:19:49;13.55;;;6.47;;
37453;SDS011;23315;52.078;4.756;2023-11-21T05:22:14;13.23;;;6.53;;
37453;SDS011;23315;52.078;4.756;2023-11-21T05:24:39;14.20;;;5.88;;
37453;SDS011;23315;52.078;4.756;2023-11-21T05:27:05;20.30;;;6.72;;
37453;SDS011;23315;52.078;4.756;2023-11-21T05:29:30;16.75;;;5.32;;
37453;SDS011;23315;52.078;4.756;2023-11-21T05:31:56;17.95;;;5.50;;
37453;SDS011;23315;52.078;4.756;2023-11-21T05:34:21;9.25;;;4.70;;
37453;SDS011;23315;52.078;4.756;2023-11-21T05:36:49;15.52;;;5.43;;
37453;SDS011;23315;52.078;4.756;2023-11-21T05:39:14;14.10;;;5.88;;
37453;SDS011;23315;52.078;4.756;2023-11-21T05:41:42;17.58;;;4.78;;
37453;SDS011;23315;52.078;4.756;2023-11-21T05:44:07;12.25;;;5.80;;
37453;SDS011;23315;52.078;4.756;2023-11-21T05:46:34;13.32;;;5.18;;
37453;SDS011;23315;52.078;4.756;2023-11-21T05:48:59;12.75;;;5.00;;
37453;SDS011;23315;52.078;4.756;2023-11-21T05:51:25;13.82;;;3.78;;
37453;SDS011;23315;52.078;4.756;2023-11-21T05:53:50;8.07;;;3.00;;
37453;SDS011;23315;52.078;4.756;2023-11-21T05:56:15;8.30;;;3.10;;
37453;SDS011;23315;52.078;4.756;2023-11-21T05:58:42;6.65;;;3.28;;
37453;SDS011;23315;52.078;4.756;2023-11-21T06:01:07;7.53;;;3.00;;
37453;SDS011;23315;52.078;4.756;2023-11-21T06:03:34;5.07;;;3.42;;
37453;SDS011;23315;52.078;4.756;2023-11-21T06:05:59;10.85;;;4.22;;
37453;SDS011;23315;52.078;4.756;2023-11-21T06:08:24;14.02;;;4.53;;
37453;SDS011;23315;52.078;4.756;2023-11-21T06:10:50;15.63;;;4.78;;
37453;SDS011;23315;52.078;4.756;2023-11-21T06:13:15;13.32;;;5.28;;
37453;SDS011;23315;52.078;4.756;2023-11-21T06:15:41;15.05;;;5.97;;
37453;SDS011;23315;52.078;4.756;2023-11-21T06:18:07;14.52;;;5.47;;
37453;SDS011;23315;52.078;4.756;2023-11-21T06:20:35;17.05;;;7.07;;
37453;SDS011;23315;52.078;4.756;2023-11-21T06:23:02;17.30;;;6.65;;
37453;SDS011;23315;52.078;4.756;2023-11-21T06:25:28;18.85;;;7.15;;
37453;SDS011;23315;52.078;4.756;2023-11-21T06:27:54;19.30;;;7.03;;
37453;SDS011;23315;52.078;4.756;2023-11-21T06:30:19;13.18;;;6.20;;
37453;SDS011;23315;52.078;4.756;2023-11-21T06:32:45;20.95;;;8.60;;
37453;SDS011;23315;52.078;4.756;2023-11-21T06:35:13;17.10;;;6.70;;
37453;SDS011;23315;52.078;4.756;2023-11-21T06:37:38;18.45;;;8.27;;
37453;SDS011;23315;52.078;4.756;2023-11-21T06:40:04;19.60;;;7.95;;
37453;SDS011;23315;52.078;4.756;2023-11-21T06:42:30;20.40;;;7.72;;
37453;SDS011;23315;52.078;4.756;2023-11-21T06:44:56;17.75;;;7.93;;
37453;SDS011;23315;52.078;4.756;2023-11-21T06:47:25;21.10;;;8.05;;
37453;SDS011;23315;52.078;4.756;2023-11-21T06:49:51;20.10;;;7.78;;
37453;SDS011;23315;52.078;4.756;2023-11-21T06:52:17;20.83;;;7.25;;
37453;SDS011;23315;52.078;4.756;2023-11-21T06:54:43;22.10;;;7.75;;
37453;SDS011;23315;52.078;4.756;2023-11-21T06:57:08;18.65;;;6.85;;
37453;SDS011;23315;52.078;4.756;2023-11-21T06:59:34;17.50;;;7.40;;
37453;SDS011;23315;52.078;4.756;2023-11-21T07:01:59;14.80;;;6.95;;
37453;SDS011;23315;52.078;4.756;2023-11-21T07:04:24;11.95;;;7.35;;
37453;SDS011;23315;52.078;4.756;2023-11-21T07:06:53;14.27;;;7.47;;
37453;SDS011;23315;52.078;4.756;2023-11-21T07:09:19;15.98;;;6.38;;
37453;SDS011;23315;52.078;4.756;2023-11-21T07:11:47;12.02;;;6.43;;
37453;SDS011;23315;52.078;4.756;2023-11-21T07:14:15;21.15;;;7.22;;
37453;SDS011;23315;52.078;4.756;2023-11-21T07:16:42;12.30;;;5.03;;
37453;SDS011;23315;52.078;4.756;2023-11-21T07:19:07;12.18;;;5.20;;
37453;SDS011;23315;52.078;4.756;2023-11-21T07:21:33;7.38;;;3.97;;
37453;SDS011;23315;52.078;4.756;2023-11-21T07:24:02;11.57;;;4.60;;
37453;SDS011;23315;52.078;4.756;2023-11-21T07:26:28;11.27;;;5.13;;
37453;SDS011;23315;52.078;4.756;2023-11-21T07:28:53;7.55;;;4.25;;
37453;SDS011;23315;52.078;4.756;2023-11-21T07:31:19;10.10;;;4.82;;
37453;SDS011;23315;52.078;4.756;2023-11-21T07:33:44;9.27;;;4.18;;
37453;SDS011;23315;52.078;4.756;2023-11-21T07:36:13;11.57;;;5.28;;
37453;SDS011;23315;52.078;4.756;2023-11-21T07:38:39;12.15;;;6.45;;
37453;SDS011;23315;52.078;4.756;2023-11-21T07:41:05;11.07;;;6.65;;
37453;SDS011;23315;52.078;4.756;2023-11-21T07:43:32;14.80;;;6.55;;
37453;SDS011;23315;52.078;4.756;2023-11-21T07:46:00;13.60;;;6.38;;
37453;SDS011;23315;52.078;4.756;2023-11-21T07:48:28;14.77;;;6.53;;
37453;SDS011;23315;52.078;4.756;2023-11-21T07:50:53;16.45;;;7.47;;
37453;SDS011;23315;52.078;4.756;2023-11-21T07:53:19;14.50;;;7.30;;
37453;SDS011;23315;52.078;4.756;2023-11-21T07:55:44;14.27;;;6.97;;
37453;SDS011;23315;52.078;4.756;2023-11-21T07:58:12;13.63;;;6.53;;
37453;SDS011;23315;52.078;4.756;2023-11-21T08:00:37;15.85;;;7.13;;
37453;SDS011;23315;52.078;4.756;2023-11-21T08:03:04;16.88;;;6.70;;
37453;SDS011;23315;52.078;4.756;2023-11-21T08:05:30;13.23;;;6.97;;
37453;SDS011;23315;52.078;4.756;2023-11-21T08:07:56;23.88;;;8.82;;
37453;SDS011;23315;52.078;4.756;2023-11-21T08:10:21;21.25;;;8.23;;
37453;SDS011;23315;52.078;4.756;2023-11-21T08:12:47;17.23;;;8.60;;
37453;SDS011;23315;52.078;4.756;2023-11-21T08:15:13;33.45;;;9.98;;
37453;SDS011;23315;52.078;4.756;2023-11-21T08:17:39;48.63;;;13.23;;
37453;SDS011;23315;52.078;4.756;2023-11-21T08:20:05;44.97;;;12.15;;
37453;SDS011;23315;52.078;4.756;2023-11-21T08:22:31;36.65;;;10.05;;
37453;SDS011;23315;52.078;4.756;2023-11-21T08:24:57;27.52;;;10.68;;
37453;SDS011;23315;52.078;4.756;2023-11-21T08:27:22;20.05;;;8.27;;
37453;SDS011;23315;52.078;4.756;2023-11-21T08:29:48;20.08;;;7.70;;
37453;SDS011;23315;52.078;4.756;2023-11-21T08:32:13;16.95;;;6.88;;
37453;SDS011;23315;52.078;4.756;2023-11-21T08:34:39;13.95;;;7.00;;
37453;SDS011;23315;52.078;4.756;2023-11-21T08:37:05;13.48;;;7.55;;
37453;SDS011;23315;52.078;4.756;2023-11-21T08:39:30;14.35;;;6.93;;
37453;SDS011;23315;52.078;4.756;2023-11-21T08:41:57;15.45;;;6.68;;
37453;SDS011;23315;52.078;4.756;2023-11-21T08:44:22;14.32;;;6.35;;
37453;SDS011;23315;52.078;4.756;2023-11-21T08:46:48;12.50;;;6.50;;
37453;SDS011;23315;52.078;4.756;2023-11-21T08:49:14;14.52;;;7.78;;
37453;SDS011;23315;52.078;4.756;2023-11-21T08:51:40;16.90;;;7.30;;
37453;SDS011;23315;52.078;4.756;2023-11-21T08:54:06;11.00;;;6.10;;
37453;SDS011;23315;52.078;4.756;2023-11-21T08:56:33;16.67;;;6.72;;
37453;SDS011;23315;52.078;4.756;2023-11-21T08:58:59;12.52;;;6.15;;
37453;SDS011;23315;52.078;4.756;2023-11-21T09:01:27;12.60;;;6.32;;
37453;SDS011;23315;52.078;4.756;2023-11-21T09:03:52;11.82;;;6.22;;
37453;SDS011;23315;52.078;4.756;2023-11-21T09:06:18;13.27;;;7.28;;
37453;SDS011;23315;52.078;4.756;2023-11-21T09:08:44;12.07;;;5.97;;
37453;SDS011;23315;52.078;4.756;2023-11-21T09:11:09;10.82;;;6.43;;
37453;SDS011;23315;52.078;4.756;2023-11-21T09:13:35;10.48;;;6.00;;
37453;SDS011;23315;52.078;4.756;2023-11-21T09:16:01;10.13;;;5.70;;
37453;SDS011;23315;52.078;4.756;2023-11-21T09:18:26;12.35;;;6.07;;
37453;SDS011;23315;52.078;4.756;2023-11-21T09:20:52;11.57;;;5.68;;
37453;SDS011;23315;52.078;4.756;2023-11-21T09:23:17;12.65;;;6.32;;
37453;SDS011;23315;52.078;4.756;2023-11-21T09:25:43;14.23;;;6.50;;
37453;SDS011;23315;52.078;4.756;2023-11-21T09:28:11;11.60;;;6.28;;
37453;SDS011;23315;52.078;4.756;2023-11-21T09:30:36;14.40;;;7.68;;
37453;SDS011;23315;52.078;4.756;2023-11-21T09:33:03;11.40;;;6.55;;
37453;SDS011;23315;52.078;4.756;2023-11-21T09:35:33;13.98;;;7.82;;
37453;SDS011;23315;52.078;4.756;2023-11-21T09:37:58;13.23;;;7.20;;
37453;SDS011;23315;52.078;4.756;2023-11-21T09:40:26;11.25;;;6.70;;
37453;SDS011;23315;52.078;4.756;2023-11-21T09:45:25;16.48;;;8.50;;
37453;SDS011;23315;52.078;4.756;2023-11-21T09:47:52;16.08;;;8.25;;
37453;SDS011;23315;52.078;4.756;2023-11-21T09:50:19;13.95;;;7.32;;
37453;SDS011;23315;52.078;4.756;2023-11-21T09:55:15;19.85;;;9.85;;
37453;SDS011;23315;52.078;4.756;2023-11-21T09:57:43;14.40;;;8.68;;
37453;SDS011;23315;52.078;4.756;2023-11-21T10:00:10;13.23;;;8.38;;
37453;SDS011;23315;52.078;4.756;2023-11-21T10:02:37;14.18;;;8.07;;
37453;SDS011;23315;52.078;4.756;2023-11-21T10:05:03;17.30;;;9.70;;
37453;SDS011;23315;52.078;4.756;2023-11-21T10:07:29;11.35;;;7.07;;
37453;SDS011;23315;52.078;4.756;2023-11-21T10:09:55;15.77;;;8.63;;
37453;SDS011;23315;52.078;4.756;2023-11-21T10:12:21;10.85;;;7.32;;
37453;SDS011;23315;52.078;4.756;2023-11-21T10:14:48;15.32;;;8.50;;
37453;SDS011;23315;52.078;4.756;2023-11-21T10:17:14;14.43;;;9.48;;
37453;SDS011;23315;52.078;4.756;2023-11-21T10:19:51;12.55;;;7.50;;
37453;SDS011;23315;52.078;4.756;2023-11-21T10:22:18;13.52;;;8.48;;
37453;SDS011;23315;52.078;4.756;2023-11-21T10:24:45;12.63;;;8.60;;
37453;SDS011;23315;52.078;4.756;2023-11-21T10:27:10;10.60;;;7.35;;
37453;SDS011;23315;52.078;4.756;2023-11-21T10:29:35;14.10;;;7.80;;
37453;SDS011;23315;52.078;4.756;2023-11-21T10:32:03;18.73;;;9.20;;
37453;SDS011;23315;52.078;4.756;2023-11-21T10:34:30;14.32;;;8.60;;
37453;SDS011;23315;52.078;4.756;2023-11-21T10:36:55;17.58;;;7.93;;
37453;SDS011;23315;52.078;4.756;2023-11-21T10:39:23;14.02;;;8.20;;
37453;SDS011;23315;52.078;4.756;2023-11-21T10:41:52;16.25;;;8.27;;
37453;SDS011;23315;52.078;4.756;2023-11-21T10:44:18;12.77;;;9.02;;
37453;SDS011;23315;52.078;4.756;2023-11-21T10:46:53;12.18;;;7.97;;
37453;SDS011;23315;52.078;4.756;2023-11-21T10:49:21;13.10;;;7.93;;
37453;SDS011;23315;52.078;4.756;2023-11-21T10:51:49;12.70;;;7.68;;
37453;SDS011;23315;52.078;4.756;2023-11-21T10:54:18;13.90;;;7.20;;
37453;SDS011;23315;52.078;4.756;2023-11-21T10:56:50;11.80;;;6.03;;
37453;SDS011;23315;52.078;4.756;2023-11-21T10:59:18;11.40;;;6.68;;
37453;SDS011;23315;52.078;4.756;2023-11-21T11:01:46;11.98;;;6.95;;
37453;SDS011;23315;52.078;4.756;2023-11-21T11:04:14;12.82;;;6.72;;
37453;SDS011;23315;52.078;4.756;2023-11-21T11:06:44;17.35;;;6.68;;
37453;SDS011;23315;52.078;4.756;2023-11-21T11:09:12;13.75;;;7.38;;
37453;SDS011;23315;52.078;4.756;2023-11-21T11:11:39;12.10;;;6.47;;
37453;SDS011;23315;52.078;4.756;2023-11-21T11:14:06;15.95;;;7.50;;
37453;SDS011;23315;52.078;4.756;2023-11-21T11:16:34;13.90;;;7.38;;
37453;SDS011;23315;52.078;4.756;2023-11-21T11:19:00;13.25;;;7.80;;
37453;SDS011;23315;52.078;4.756;2023-11-21T11:24:19;9.98;;;6.20;;
37453;SDS011;23315;52.078;4.756;2023-11-21T11:29:46;11.13;;;6.20;;
37453;SDS011;23315;52.078;4.756;2023-11-21T11:35:01;12.98;;;7.13;;
37453;SDS011;23315;52.078;4.756;2023-11-21T11:37:29;7.82;;;5.32;;
37453;SDS011;23315;52.078;4.756;2023-11-21T11:39:55;10.90;;;5.75;;
37453;SDS011;23315;52.078;4.756;2023-11-21T11:42:20;10.90;;;6.82;;
37453;SDS011;23315;52.078;4.756;2023-11-21T11:44:47;11.27;;;6.05;;
37453;SDS011;23315;52.078;4.756;2023-11-21T11:47:27;11.65;;;6.65;;
37453;SDS011;23315;52.078;4.756;2023-11-21T11:52:39;8.32;;;5.22;;
37453;SDS011;23315;52.078;4.756;2023-11-21T11:55:08;7.07;;;4.72;;
37453;SDS011;23315;52.078;4.756;2023-11-21T11:57:35;11.52;;;6.50;;
37453;SDS011;23315;52.078;4.756;2023-11-21T12:00:07;9.25;;;5.80;;
37453;SDS011;23315;52.078;4.756;2023-11-21T12:02:37;10.55;;;5.40;;
37453;SDS011;23315;52.078;4.756;2023-11-21T12:05:08;9.75;;;6.72;;
37453;SDS011;23315;52.078;4.756;2023-11-21T12:10:16;25.60;;;6.30;;
37453;SDS011;23315;52.078;4.756;2023-11-21T12:12:46;11.20;;;5.10;;
37453;SDS011;23315;52.078;4.756;2023-11-21T12:15:13;9.23;;;4.70;;
37453;SDS011;23315;52.078;4.756;2023-11-21T12:17:39;10.13;;;5.03;;
37453;SDS011;23315;52.078;4.756;2023-11-21T12:20:06;9.32;;;5.15;;
37453;SDS011;23315;52.078;4.756;2023-11-21T12:22:39;6.95;;;4.68;;
37453;SDS011;23315;52.078;4.756;2023-11-21T12:25:07;7.38;;;4.22;;
37453;SDS011;23315;52.078;4.756;2023-11-21T12:27:32;8.00;;;4.15;;
37453;SDS011;23315;52.078;4.756;2023-11-21T12:29:57;6.63;;;4.15;;
37453;SDS011;23315;52.078;4.756;2023-11-21T12:32:23;7.10;;;3.97;;
37453;SDS011;23315;52.078;4.756;2023-11-21T12:34:50;7.50;;;4.15;;
37453;SDS011;23315;52.078;4.756;2023-11-21T12:37:16;8.18;;;4.55;;
37453;SDS011;23315;52.078;4.756;2023-11-21T12:39:42;7.97;;;4.68;;
37453;SDS011;23315;52.078;4.756;2023-11-21T12:42:07;7.45;;;4.15;;
37453;SDS011;23315;52.078;4.756;2023-11-21T12:44:33;7.13;;;4.43;;
37453;SDS011;23315;52.078;4.756;2023-11-21T12:46:59;8.52;;;4.72;;
37453;SDS011;23315;52.078;4.756;2023-11-21T12:49:24;7.03;;;4.18;;
37453;SDS011;23315;52.078;4.756;2023-11-21T12:51:50;7.05;;;3.50;;
37453;SDS011;23315;52.078;4.756;2023-11-21T12:54:16;8.40;;;3.70;;
37453;SDS011;23315;52.078;4.756;2023-11-21T12:56:44;6.55;;;3.53;;
37453;SDS011;23315;52.078;4.756;2023-11-21T12:59:12;8.40;;;4.57;;
37453;SDS011;23315;52.078;4.756;2023-11-21T13:01:41;6.43;;;4.00;;
37453;SDS011;23315;52.078;4.756;2023-11-21T13:04:07;7.60;;;4.47;;
37453;SDS011;23315;52.078;4.756;2023-11-21T13:06:32;6.68;;;4.40;;
37453;SDS011;23315;52.078;4.756;2023-11-21T13:09:03;8.68;;;4.20;;
37453;SDS011;23315;52.078;4.756;2023-11-21T13:11:30;6.13;;;3.72;;
37453;SDS011;23315;52.078;4.756;2023-11-21T13:13:59;10.70;;;4.47;;
37453;SDS011;23315;52.078;4.756;2023-11-21T13:16:25;7.28;;;4.70;;
37453;SDS011;23315;52.078;4.756;2023-11-21T13:18:51;7.18;;;4.32;;
37453;SDS011;23315;52.078;4.756;2023-11-21T13:21:16;6.07;;;4.00;;
37453;SDS011;23315;52.078;4.756;2023-11-21T13:23:42;6.30;;;4.22;;
37453;SDS011;23315;52.078;4.756;2023-11-21T13:26:08;7.38;;;4.40;;
37453;SDS011;23315;52.078;4.756;2023-11-21T13:28:34;13.57;;;5.57;;
37453;SDS011;23315;52.078;4.756;2023-11-21T13:31:00;7.55;;;4.78;;
37453;SDS011;23315;52.078;4.756;2023-11-21T13:33:45;11.05;;;5.97;;
37453;SDS011;23315;52.078;4.756;2023-11-21T13:36:15;9.30;;;6.80;;
37453;SDS011;23315;52.078;4.756;2023-11-21T13:38:47;9.65;;;6.65;;
37453;SDS011;23315;52.078;4.756;2023-11-21T13:41:13;11.77;;;7.22;;
37453;SDS011;23315;52.078;4.756;2023-11-21T13:43:39;11.25;;;7.45;;
37453;SDS011;23315;52.078;4.756;2023-11-21T13:46:04;11.32;;;7.80;;
37453;SDS011;23315;52.078;4.756;2023-11-21T13:48:38;10.85;;;7.60;;
37453;SDS011;23315;52.078;4.756;2023-11-21T13:51:08;12.60;;;8.38;;
37453;SDS011;23315;52.078;4.756;2023-11-21T13:53:41;13.70;;;8.32;;
37453;SDS011;23315;52.078;4.756;2023-11-21T13:56:07;10.68;;;7.60;;
37453;SDS011;23315;52.078;4.756;2023-11-21T13:58:33;11.75;;;7.63;;
37453;SDS011;23315;52.078;4.756;2023-11-21T14:01:18;11.18;;;7.30;;
37453;SDS011;23315;52.078;4.756;2023-11-21T14:03:50;11.27;;;6.75;;
37453;SDS011;23315;52.078;4.756;2023-11-21T14:06:21;9.63;;;6.85;;
37453;SDS011;23315;52.078;4.756;2023-11-21T14:08:57;8.38;;;6.05;;
37453;SDS011;23315;52.078;4.756;2023-11-21T14:11:23;10.63;;;5.85;;
37453;SDS011;23315;52.078;4.756;2023-11-21T14:13:48;7.40;;;5.40;;
37453;SDS011;23315;52.078;4.756;2023-11-21T14:16:14;7.60;;;5.32;;
37453;SDS011;23315;52.078;4.756;2023-11-21T14:18:41;9.38;;;5.68;;
37453;SDS011;23315;52.078;4.756;2023-11-21T14:21:18;7.82;;;5.68;;
37453;SDS011;23315;52.078;4.756;2023-11-21T14:23:43;7.65;;;5.45;;
37453;SDS011;23315;52.078;4.756;2023-11-21T14:26:10;7.22;;;5.43;;
37453;SDS011;23315;52.078;4.756;2023-11-21T14:28:39;7.20;;;5.45;;
37453;SDS011;23315;52.078;4.756;2023-11-21T14:31:04;8.65;;;6.30;;
37453;SDS011;23315;52.078;4.756;2023-11-21T14:33:29;9.20;;;5.95;;
37453;SDS011;23315;52.078;4.756;2023-11-21T14:35:55;8.48;;;6.45;;
37453;SDS011;23315;52.078;4.756;2023-11-21T14:38:22;8.73;;;6.40;;
37453;SDS011;23315;52.078;4.756;2023-11-21T14:40:48;8.93;;;6.35;;
37453;SDS011;23315;52.078;4.756;2023-11-21T14:43:14;8.57;;;6.43;;
37453;SDS011;23315;52.078;4.756;2023-11-21T14:45:39;8.48;;;6.57;;
37453;SDS011;23315;52.078;4.756;2023-11-21T14:48:05;9.77;;;7.22;;
37453;SDS011;23315;52.078;4.756;2023-11-21T14:50:34;10.57;;;6.93;;
37453;SDS011;23315;52.078;4.756;2023-11-21T14:53:02;8.50;;;6.38;;
37453;SDS011;23315;52.078;4.756;2023-11-21T14:55:30;11.73;;;6.72;;